SBKPSBCT

Guest
Details From SBKP - Sao Paulo Viracopos
To SBCT - Afonso Pena
Flight Number -
Tags decoded
Created
Modified
Stats Distance 189 nm / 349 km
Max Altitude 0 ft / 0 m
Waypoints 3
Social Downloads 0
Likes 0
Share VATSIM

Download

Looking for another format? Having issues loading an existing format? Contact us
Advertisement - Login to hide

Notes

Requested: SBKP PREGO UA310 SBCT Unmatched points: UA310

Route

SBKP PREGO SBCT

ID Type Via Altitude Latitude Longitude Leg Dist Tot Dist Heading (true) Name
O SBKP APT - 0 ft / 0 m -23.00738˚ -47.13452˚ - 0 nm - Sao Paulo Viracopos
PREGO FIX - 0 ft / 0 m -23.30183˚ -47.27533˚ 19 nm 19 nm 204° / 204° -
O SBCT APT - 0 ft / 0 m -25.52888˚ -49.17306˚ 169 nm 188 nm 217° / 218° Afonso Pena

Altitude Profile

Advertisement - Login to hide

Weather


0- 5 10 15 20 25 30 35+ Temperature / ° C

Clouds and Precipitation
Forecast for 2017-12-12 12:00 UTC. Updated 2 hours ago

Ground ~20,000 ft ~40,000 ft Winds

SBKP

Details ICAO SBKP (VCP)
Name Sao Paulo Viracopos
Region Brazil
Timezone America/Sao_Paulo (UTC-2.0)
Stats Elevation 2,170 ft / 661 m (AMSL)
Location -23.007383° -47.134522°
Runways 1
Magnetic Variation 21.194° W

METAR

SBKP 121200Z 13017KT 9999 BKN023 BKN070 22/15 Q1017

Decode

TAF

TAF SBKP 120830Z 1212/1312 12015KT CAVOK TX26/1217Z TN17/1308Z BECMG 1212/1214 BKN030 BECMG 1214/1216 SCT040 BECMG 1218/1220 12013KT BECMG 1222/1224 12005KT CAVOK RMK PHH

Decode

Departure Runways

ID Width Length Bearing (true) Bearing (mag) Surface Threshold Offset Overrun Length
15 148 ft / 45 m 10,639 ft / 3,243 m 127.91° 149.10° Asphalt 0 ft / 0 m 205 ft / 62 m
33 148 ft / 45 m 10,639 ft / 3,243 m 307.90° 329.09° Asphalt 0 ft / 0 m 205 ft / 62 m

SBCT

Details ICAO SBCT (CWB)
Name Afonso Pena
Region Brazil
Timezone America/Sao_Paulo (UTC-2.0)
Stats Elevation 2,988 ft / 911 m (AMSL)
Location -25.528885° -49.173062°
Runways 2
Magnetic Variation 19.612° W

METAR

SBCT 121200Z 14013KT 9000 -DZ OVC005 14/13 Q1021

Decode

TAF

TAF SBCT 120900Z 1212/1312 10010KT 9999 SCT030 SCT040 TX23/1217Z TN12/1307Z PROB30 1214/1220 10012KT 9999 SCT030 SCT040 BECMG 1306/1310 04005KT SCT010 RMK PDN

Decode

Destination Runways

ID Width Length Bearing (true) Bearing (mag) Surface Threshold Offset Overrun Length
11 148 ft / 45 m 5,909 ft / 1,801 m 91.79° 111.40° Asphalt 0 ft / 0 m 0 ft / 0 m
15 148 ft / 45 m 7,290 ft / 2,222 m 134.76° 154.37° Asphalt 0 ft / 0 m 190 ft / 58 m
29 148 ft / 45 m 5,909 ft / 1,801 m 271.78° 291.39° Asphalt 0 ft / 0 m 0 ft / 0 m
33 148 ft / 45 m 7,290 ft / 2,222 m 314.75° 334.36° Asphalt 0 ft / 0 m 185 ft / 56 m

Approach Navaids

Runway Type Ident Frequency Range Bearing (true) Bearing (mag) Slope Elevation
15 Localiser ICT 109.30 MHz 18 nm / 33 km 134.93° 154.54° - 2,990 ft / 911 m (AMSL)
15 Glidescope ICT 109.30 MHz 10 nm / 19 km 134.75° 154.37° 3.04° 2,990 ft / 911 m (AMSL)

Popular Alternatives